Auburn, IN (46706)

09:58 AM EDT die 28o May, anno 2015 (GMT -0400)
East Memorial Park | | Change Station
CLOSE
Current Station
Personal Weather Stations
Location: Auburn, IN
Elevation: 866 ft
Nearby Weather Stations

Elev 866 ft 41.36 °N, 85.06 °W | Updated 3 seconds ago

Serena
Serena
70.6 °F
Feels Like 73 °F
N
0.0
Ventus Variabilis Ventus from Eurus
Gusts 7.0 mph

Hodie
High -- | Low -- °F
--% Chance of Precip.
Yesterday
High -- | Low -- °F
Precip. -- in
6:11 AM 9:03 PM
Waxing Gibbous, 76% visible
Pressio 30.25 in
Visibilitas 10.0 milia passuum
Clouds Serena
Index Caloris 73 °F
Frigus in quo Ros apparet 62 °F
Umor 73%
Rainfall 0.00 in
Snow Depth Not available.
UV 4 out of 12
Pollen 9.40 out of 12
Air Quality Not available.
Flu Activity Sporadic
METAR KGWB 281335Z AUTO 09006KT 10SM CLR 20/13 A3025 RMK AO2

More Conditions Fewer Conditions

Pressio 30.25 in
Visibilitas 10.0 milia passuum
Clouds Serena
Index Caloris 73 °F
Frigus in quo Ros apparet 62 °F
Umor 73%
Rainfall 0.00 in
Snow Depth Not available.
UV 4 out of 12
Pollen 9.40 out of 12
Air Quality Not available.
Flu Activity Sporadic
METAR KGWB 281335Z AUTO 09006KT 10SM CLR 20/13 A3025 RMK AO2

More Conditions Fewer Conditions

10-Day Weather Forecast

Almanac

Astronomy

May. 28, 2015 Rise Set
Actual Time
Civil Twilight
Nautical Twilight
Astronomical Twilight
Moon
Length Of Visible Light
Length of Day
Tomorrow will be .
, % of the Moon is Illuminated

Today's Extremes

State Highs State Lows

Community

WunderPhotos

Upload Photos

1,824,972 photos uploaded!

WunderBlogs® & News

Nearby

Air Quality

  Air Quality AQ Index Pollutant
Not available.

Snow Depth

Station Depth Elevation

Earthquake Activity

City Distance Mag. Time & Date
Minimum magnitude displayed is 2.5.

Coastal Water Temperatures

Locus Calor

Stations

Nearby Weather Stations

Station Location Temp Frigus Venti Frigus in quo Ros apparet Umor Ventus Precip. Elev Renovata Type